Laurel Hill, Florida
Current Conditions -  °F | °C
As of 2:58 AM on Thursday 18 Dec 2014 (Local Time) from K0J4 Reporting Station
Clear Clear  
Wind Chill: 40°   Ceiling: Unl
Heat Index: 40°   Visibility: 10mi
Dew Point: 38°   Wind: 0mph
Humidity: 93%   Direction: NA
Pressure: 30.19"   Gusts: NA
Location:  30.97°N, 86.46°W
Report Text: K0J4 180858Z AUTO 00000KT 10SM CLR 04/03 A3019 RMK AO2 SLP221 T00440033 56005 $
Loading
Personal Weather Stations






























Interactive Weather Map New forecast layout! Learn more

10-Day Weather Forecast

Advertisements
Track Severe Weather on mobile